createdAt,value
2023-03-03T00:00:31.527Z,20.80
2023-03-03T00:05:47.076Z,20.13
2023-03-03T00:11:05.220Z,19.27
2023-03-03T00:16:35.534Z,20.50
2023-03-03T00:21:52.708Z,19.75
2023-03-03T00:27:50.675Z,22.60
2023-03-03T00:33:34.817Z,21.50
2023-03-03T00:38:50.820Z,19.17
2023-03-03T00:44:38.686Z,19.90
2023-03-03T00:50:23.922Z,19.77
2023-03-03T00:55:40.653Z,19.02
2023-03-03T01:00:56.907Z,19.13
2023-03-03T01:06:13.050Z,17.80
2023-03-03T01:11:29.515Z,19.10
2023-03-03T01:16:45.138Z,19.10
2023-03-03T01:22:01.146Z,20.05
2023-03-03T01:27:16.429Z,20.35
2023-03-03T01:32:32.825Z,19.30
2023-03-03T01:37:48.946Z,21.92
2023-03-03T01:43:05.387Z,20.35
2023-03-03T01:48:42.895Z,20.20
2023-03-03T01:54:01.157Z,21.98
2023-03-03T01:59:24.762Z,19.92
2023-03-03T02:04:40.836Z,22.40
2023-03-03T02:10:12.725Z,20.10
2023-03-03T02:15:37.782Z,22.40
2023-03-03T02:21:07.577Z,20.58
2023-03-03T02:26:26.363Z,20.42
2023-03-03T02:31:43.360Z,19.27
2023-03-03T02:36:58.925Z,20.73
2023-03-03T02:42:24.060Z,21.73
2023-03-03T02:47:39.963Z,21.88
2023-03-03T02:52:55.793Z,19.85
2023-03-03T02:58:11.325Z,21.33
2023-03-03T03:03:27.495Z,21.38
2023-03-03T03:08:43.210Z,22.13
2023-03-03T03:13:59.163Z,19.35
2023-03-03T03:19:15.912Z,19.95
2023-03-03T03:24:31.661Z,19.88
2023-03-03T03:29:47.670Z,22.23
2023-03-03T03:35:03.622Z,21.35
2023-03-03T03:40:19.698Z,23.77
2023-03-03T03:45:35.722Z,23.20
2023-03-03T03:50:51.664Z,23.65
2023-03-03T03:56:08.094Z,24.10
2023-03-03T04:01:23.825Z,24.13
2023-03-03T04:06:39.594Z,27.33
2023-03-03T04:11:55.493Z,28.30
2023-03-03T04:17:21.118Z,26.95
2023-03-03T04:22:37.016Z,25.88
2023-03-03T04:27:53.240Z,24.25
2023-03-03T04:33:09.043Z,23.85
2023-03-03T04:38:24.804Z,23.83
2023-03-03T04:43:40.764Z,24.17
2023-03-03T04:48:57.115Z,24.98
2023-03-03T04:54:12.765Z,21.63
2023-03-03T04:59:28.657Z,21.65
2023-03-03T05:04:44.534Z,20.60
2023-03-03T05:10:00.515Z,21.42
2023-03-03T05:15:16.577Z,19.38
2023-03-03T05:20:32.150Z,19.15
2023-03-03T05:25:49.251Z,20.50
2023-03-03T05:31:05.785Z,19.95
2023-03-03T05:36:22.556Z,20.75
2023-03-03T05:41:38.341Z,20.92
2023-03-03T05:46:54.416Z,19.80
2023-03-03T05:52:10.443Z,20.85
2023-03-03T05:57:26.501Z,20.60
2023-03-03T06:02:43.273Z,21.20
2023-03-03T06:08:00.318Z,22.27
2023-03-03T06:13:16.612Z,24.83
2023-03-03T06:18:32.201Z,24.75
2023-03-03T06:23:48.010Z,24.25
2023-03-03T06:29:04.235Z,24.35
2023-03-03T06:34:20.263Z,24.60
2023-03-03T06:39:36.297Z,25.45
2023-03-03T06:44:52.166Z,25.00
2023-03-03T06:50:11.281Z,27.58
2023-03-03T06:55:26.847Z,27.40
2023-03-03T07:00:50.941Z,26.77
2023-03-03T07:06:21.400Z,27.95
2023-03-03T07:11:41.090Z,27.98
2023-03-03T07:17:00.813Z,25.65
2023-03-03T07:22:25.048Z,28.23
2023-03-03T07:27:40.585Z,28.08
2023-03-03T07:32:59.434Z,25.35
2023-03-03T07:38:39.501Z,25.52
2023-03-03T07:44:01.743Z,26.67
2023-03-03T07:49:37.080Z,26.73
2023-03-03T07:54:55.410Z,27.20
2023-03-03T08:00:17.534Z,25.75
2023-03-03T08:05:44.750Z,24.38
2023-03-03T08:11:01.996Z,23.42
2023-03-03T08:16:17.750Z,25.02
2023-03-03T08:21:35.554Z,24.83
2023-03-03T08:26:51.871Z,29.63
2023-03-03T08:32:07.720Z,25.67
2023-03-03T08:37:23.874Z,27.02
2023-03-03T08:42:39.725Z,24.55
2023-03-03T08:47:56.406Z,25.15
2023-03-03T08:53:13.655Z,25.92
2023-03-03T08:58:34.983Z,23.77
2023-03-03T09:03:51.094Z,23.23
2023-03-03T09:09:07.273Z,22.42
2023-03-03T09:14:23.123Z,21.45
2023-03-03T09:19:39.566Z,22.45
2023-03-03T09:24:59.124Z,21.65
2023-03-03T09:30:26.767Z,21.23
2023-03-03T09:35:42.847Z,21.02
2023-03-03T09:41:12.123Z,19.65
2023-03-03T09:47:05.362Z,23.13
2023-03-03T09:52:51.641Z,23.40
2023-03-03T09:58:46.067Z,21.83
2023-03-03T10:04:22.932Z,19.13
2023-03-03T10:10:20.432Z,20.73
2023-03-03T10:16:24.115Z,20.65
2023-03-03T10:21:52.798Z,21.20
2023-03-03T10:27:33.853Z,21.38
2023-03-03T10:33:06.556Z,21.13
2023-03-03T10:39:01.811Z,19.90
2023-03-03T10:44:17.340Z,19.27
2023-03-03T10:49:41.298Z,18.75
2023-03-03T10:55:34.187Z,19.25
2023-03-03T11:01:04.921Z,18.58
2023-03-03T11:06:53.363Z,18.33
2023-03-03T11:12:27.217Z,17.75
2023-03-03T11:18:06.605Z,19.80
2023-03-03T11:23:54.255Z,18.25
2023-03-03T11:29:54.105Z,19.88
2023-03-03T11:35:25.148Z,16.92
2023-03-03T11:40:59.339Z,19.63
2023-03-03T11:46:42.347Z,18.92
2023-03-03T11:52:20.056Z,18.48
2023-03-03T11:58:06.050Z,18.13
2023-03-03T12:03:38.853Z,17.70
2023-03-03T12:09:26.403Z,16.75
2023-03-03T12:14:49.125Z,17.38
2023-03-03T12:20:20.083Z,16.52
2023-03-03T12:25:56.367Z,16.38
2023-03-03T12:31:27.041Z,16.70
2023-03-03T12:37:30.686Z,15.40
2023-03-03T12:42:49.800Z,14.82
2023-03-03T12:48:13.840Z,15.80
2023-03-03T12:53:41.747Z,14.60
2023-03-03T12:59:30.323Z,14.40
2023-03-03T13:05:24.453Z,14.38
2023-03-03T13:10:47.482Z,12.57
2023-03-03T13:16:17.509Z,10.50
2023-03-03T13:21:55.103Z,15.32
2023-03-03T13:27:15.245Z,12.07
2023-03-03T13:32:52.917Z,11.32
2023-03-03T13:38:16.115Z,12.30
2023-03-03T13:43:50.178Z,13.32
2023-03-03T13:49:36.670Z,11.98
2023-03-03T13:54:56.550Z,11.52
2023-03-03T14:00:23.125Z,13.23
2023-03-03T14:05:48.697Z,11.68
2023-03-03T14:11:35.906Z,8.48
2023-03-03T14:17:00.839Z,10.95
2023-03-03T14:22:25.792Z,10.38
2023-03-03T14:27:47.395Z,11.30
2023-03-03T14:33:12.440Z,11.05
2023-03-03T14:38:34.581Z,10.07
2023-03-03T14:44:00.149Z,8.95
2023-03-03T14:49:33.055Z,10.60
2023-03-03T14:55:01.289Z,12.98
2023-03-03T15:00:20.378Z,12.13
2023-03-03T15:05:36.552Z,11.30
2023-03-03T15:10:52.278Z,11.45
2023-03-03T15:16:32.713Z,11.50
2023-03-03T15:21:56.350Z,10.68
2023-03-03T15:27:30.044Z,11.85
2023-03-03T15:33:04.376Z,12.02
2023-03-03T15:38:41.979Z,11.80
2023-03-03T15:44:06.096Z,11.80
2023-03-03T15:49:55.864Z,11.38
2023-03-03T15:55:24.608Z,10.35
2023-03-03T16:00:43.288Z,10.48
2023-03-03T16:06:12.632Z,10.05
2023-03-03T16:12:16.115Z,11.88
2023-03-03T16:17:53.824Z,10.23
2023-03-03T16:23:21.060Z,9.23
2023-03-03T16:29:04.544Z,11.57
2023-03-03T16:34:32.434Z,11.60
2023-03-03T16:40:11.256Z,11.45
2023-03-03T16:45:39.642Z,9.75
2023-03-03T16:51:43.054Z,9.98
2023-03-03T16:57:11.779Z,11.73
2023-03-03T17:02:46.666Z,11.50
2023-03-03T17:08:47.273Z,12.35
2023-03-03T17:14:32.449Z,11.77
2023-03-03T17:20:18.238Z,11.50
2023-03-03T17:26:01.787Z,13.52
2023-03-03T17:31:33.574Z,12.98
2023-03-03T17:37:00.773Z,12.98
2023-03-03T17:42:47.794Z,14.43
2023-03-03T17:48:21.949Z,13.90
2023-03-03T17:53:41.321Z,15.00
2023-03-03T17:59:26.517Z,17.45
2023-03-03T18:05:33.039Z,15.43
2023-03-03T18:11:09.199Z,15.68
2023-03-03T18:16:43.124Z,16.13
2023-03-03T18:22:22.425Z,17.20
2023-03-03T18:27:40.636Z,14.30
2023-03-03T18:32:56.519Z,14.32
2023-03-03T18:38:35.165Z,12.27
2023-03-03T18:43:54.202Z,14.35
2023-03-03T18:49:12.908Z,14.77
2023-03-03T18:54:30.940Z,15.02
2023-03-03T18:59:56.695Z,13.07
2023-03-03T19:05:12.353Z,13.85
2023-03-03T19:11:01.945Z,13.70
2023-03-03T19:16:25.314Z,13.77
2023-03-03T19:21:43.288Z,13.10
2023-03-03T19:27:30.621Z,15.50
2023-03-03T19:32:52.397Z,13.00
2023-03-03T19:38:35.452Z,14.00
2023-03-03T19:44:21.041Z,13.55
2023-03-03T19:50:01.173Z,13.45
2023-03-03T19:55:38.348Z,13.60
2023-03-03T20:00:59.725Z,12.32
2023-03-03T20:06:29.341Z,13.52
2023-03-03T20:11:48.613Z,16.25
2023-03-03T20:17:35.670Z,12.90
2023-03-03T20:23:05.408Z,12.40
2023-03-03T20:28:36.328Z,11.25
2023-03-03T20:34:11.083Z,11.98
2023-03-03T20:39:48.031Z,12.77
2023-03-03T20:45:42.160Z,13.55
2023-03-03T20:51:22.904Z,12.80
2023-03-03T20:56:50.422Z,12.48
2023-03-03T21:02:19.973Z,12.25
2023-03-03T21:07:36.885Z,13.95
2023-03-03T21:13:29.550Z,11.77
2023-03-03T21:18:57.248Z,12.63
2023-03-03T21:24:15.571Z,13.25
2023-03-03T21:29:33.750Z,14.02
2023-03-03T21:35:06.588Z,12.98
2023-03-03T21:40:30.077Z,14.18
2023-03-03T21:45:46.900Z,17.90
2023-03-03T21:51:02.933Z,18.60
2023-03-03T21:56:18.512Z,15.43
2023-03-03T22:01:35.881Z,15.38
2023-03-03T22:06:53.508Z,14.32
2023-03-03T22:12:09.486Z,13.65
2023-03-03T22:17:25.690Z,11.82
2023-03-03T22:22:42.395Z,11.65
2023-03-03T22:27:58.186Z,12.77
2023-03-03T22:33:14.030Z,11.50
2023-03-03T22:38:29.901Z,12.48
2023-03-03T22:43:45.857Z,12.60
2023-03-03T22:49:01.979Z,12.20
2023-03-03T22:54:18.081Z,12.80
2023-03-03T22:59:34.722Z,13.82
2023-03-03T23:04:51.870Z,12.05
2023-03-03T23:10:10.147Z,12.23
2023-03-03T23:15:26.254Z,12.90
2023-03-03T23:20:46.177Z,13.23
2023-03-03T23:26:02.457Z,13.17
2023-03-03T23:31:18.290Z,12.95
2023-03-03T23:36:34.091Z,13.82
2023-03-03T23:41:49.959Z,12.63
2023-03-03T23:47:07.051Z,14.93
2023-03-03T23:52:22.582Z,18.20
2023-03-03T23:57:38.439Z,12.73
